Time;durP1;ratioP1;P1;durP2;ratioP2;P2;SDS_P1;SDS_P2;PMS_P1;PMS_P2;Temp;Humidity;BMP_temperature;BMP_pressure;BME280_temperature;BME280_humidity;BME280_pressure;Samples;Min_cycle;Max_cycle;Signal;HPM_P1;HPM_P2
2021/12/09 00:01:01;;;;;;;13.05;5.35;;;2.70;99.90;;;;;;5005532;28;20142;-57
2021/12/09 00:03:29;;;;;;;12.23;5.40;;;2.70;99.90;;;;;;5004334;28;20120;-58
2021/12/09 00:05:56;;;;;;;9.18;5.15;;;2.60;99.90;;;;;;5007907;28;20530;-59
2021/12/09 00:08:25;;;;;;;13.77;6.00;;;2.60;99.90;;;;;;5003192;28;20046;-59
2021/12/09 00:10:52;;;;;;;8.55;5.20;;;2.60;99.90;;;;;;5005120;28;20050;-59
2021/12/09 00:13:18;;;;;;;11.00;6.10;;;2.50;99.90;;;;;;5006949;28;20615;-58
2021/12/09 00:15:44;;;;;;;11.32;5.78;;;2.50;99.90;;;;;;5007441;28;20057;-57
2021/12/09 00:18:09;;;;;;;10.90;5.53;;;2.50;99.90;;;;;;5009432;28;20050;-58
2021/12/09 00:20:35;;;;;;;11.13;5.60;;;2.50;99.90;;;;;;5010813;28;20053;-58
2021/12/09 00:23:01;;;;;;;10.02;5.55;;;2.50;99.90;;;;;;5012438;28;20034;-58
2021/12/09 00:25:27;;;;;;;11.05;5.88;;;2.50;99.90;;;;;;4992729;28;20073;-59
2021/12/09 00:27:52;;;;;;;17.52;6.70;;;2.40;99.90;;;;;;5010493;28;20054;-58
2021/12/09 00:30:18;;;;;;;10.52;6.07;;;2.40;99.90;;;;;;5008837;28;20133;-58
2021/12/09 00:32:44;;;;;;;12.75;6.25;;;2.40;99.90;;;;;;5012458;28;20060;-59
2021/12/09 00:35:10;;;;;;;14.95;6.15;;;2.40;99.90;;;;;;5009076;28;20077;-59
2021/12/09 00:40:01;;;;;;;11.43;6.47;;;2.30;99.90;;;;;;5010420;28;20041;-58
2021/12/09 00:42:27;;;;;;;12.45;6.25;;;2.40;99.90;;;;;;5009489;28;20124;-58
2021/12/09 00:44:54;;;;;;;10.02;6.00;;;2.40;99.90;;;;;;5002379;28;20038;-58
2021/12/09 00:47:20;;;;;;;13.30;5.88;;;2.30;99.90;;;;;;5002915;28;20050;-59
2021/12/09 00:49:47;;;;;;;12.45;6.60;;;2.30;99.90;;;;;;5001893;28;20235;-58
2021/12/09 00:52:13;;;;;;;11.25;6.35;;;2.30;99.90;;;;;;5007659;28;20088;-58
2021/12/09 00:54:41;;;;;;;12.07;6.22;;;2.30;99.90;;;;;;4990258;28;20141;-58
2021/12/09 00:57:07;;;;;;;11.20;6.47;;;2.20;99.90;;;;;;5004558;28;20042;-58
2021/12/09 00:59:32;;;;;;;11.70;6.88;;;2.20;99.90;;;;;;5005023;28;20156;-58
2021/12/09 01:01:58;;;;;;;11.15;6.65;;;2.20;99.90;;;;;;5003686;28;20030;-58
2021/12/09 01:04:24;;;;;;;10.52;6.68;;;2.20;99.90;;;;;;4999133;28;20371;-57
2021/12/09 01:06:50;;;;;;;14.50;6.63;;;2.20;99.90;;;;;;5004089;28;20089;-58
2021/12/09 01:09:16;;;;;;;14.70;7.28;;;2.20;99.90;;;;;;5002756;28;20049;-59
2021/12/09 01:11:42;;;;;;;11.35;7.35;;;2.20;99.90;;;;;;5001855;28;20435;-59
2021/12/09 01:14:08;;;;;;;9.35;6.22;;;2.20;99.90;;;;;;5010893;28;20092;-58
2021/12/09 01:16:35;;;;;;;13.43;7.55;;;2.20;99.90;;;;;;5008622;28;20480;-58
2021/12/09 01:19:01;;;;;;;12.10;7.05;;;2.20;99.90;;;;;;5010567;28;20496;-58
2021/12/09 01:21:26;;;;;;;8.57;7.00;;;2.20;99.90;;;;;;5005638;28;20100;-59
2021/12/09 01:23:52;;;;;;;14.43;7.05;;;2.10;99.90;;;;;;5014491;28;20073;-58
2021/12/09 01:26:18;;;;;;;12.85;6.95;;;2.10;99.90;;;;;;5017946;28;20045;-58
2021/12/09 01:28:52;;;;;;;15.75;7.68;;;2.20;99.90;;;;;;5014780;28;20045;-58
2021/12/09 01:31:24;;;;;;;13.70;7.93;;;2.20;99.90;;;;;;5017147;28;20050;-58
2021/12/09 01:33:51;;;;;;;13.75;7.20;;;2.20;99.90;;;;;;5016149;28;20637;-58
2021/12/09 01:36:17;;;;;;;13.73;7.65;;;2.20;99.90;;;;;;5018065;28;20056;-57
2021/12/09 01:38:43;;;;;;;11.90;8.27;;;2.10;99.90;;;;;;5016692;28;20038;-58
2021/12/09 01:41:08;;;;;;;19.45;8.25;;;2.10;99.90;;;;;;5017533;28;20132;-58
2021/12/09 01:43:34;;;;;;;12.27;7.72;;;2.10;99.90;;;;;;5010058;28;20050;-59
2021/12/09 01:46:10;;;;;;;14.20;7.50;;;2.10;99.90;;;;;;5007165;28;20037;-58
2021/12/09 01:48:37;;;;;;;12.48;8.15;;;2.10;99.90;;;;;;5008467;28;20053;-58
2021/12/09 01:51:04;;;;;;;9.35;7.35;;;2.00;99.90;;;;;;5010082;28;20100;-58
2021/12/09 01:53:29;;;;;;;15.38;7.78;;;2.00;99.90;;;;;;5009756;28;20046;-58
2021/12/09 01:55:58;;;;;;;15.27;8.13;;;1.90;99.90;;;;;;5010859;28;20037;-58
2021/12/09 01:58:24;;;;;;;14.38;8.70;;;2.00;99.90;;;;;;5009862;28;20049;-58
2021/12/09 02:00:50;;;;;;;15.32;8.93;;;2.00;99.90;;;;;;5009526;28;20480;-59
2021/12/09 02:03:15;;;;;;;16.10;8.98;;;1.90;99.90;;;;;;5010698;28;20042;-58
2021/12/09 02:05:41;;;;;;;14.70;9.20;;;1.90;99.90;;;;;;4996370;28;20133;-58
2021/12/09 02:08:13;;;;;;;11.45;8.07;;;1.80;99.90;;;;;;5015782;28;20084;-57
2021/12/09 02:10:40;;;;;;;12.00;8.68;;;1.80;99.90;;;;;;5012056;28;20344;-58
2021/12/09 02:13:06;;;;;;;14.48;8.82;;;1.80;99.90;;;;;;5011813;28;20044;-58
2021/12/09 02:15:33;;;;;;;14.82;9.32;;;1.70;99.90;;;;;;5009601;28;20045;-58
2021/12/09 02:17:59;;;;;;;18.58;9.73;;;1.80;99.90;;;;;;5005217;28;20081;-59
2021/12/09 02:20:32;;;;;;;15.38;9.82;;;1.70;99.90;;;;;;5006873;28;20153;-58
2021/12/09 02:22:58;;;;;;;15.88;9.60;;;1.70;99.90;;;;;;5008125;28;20054;-58
2021/12/09 02:25:23;;;;;;;16.02;9.48;;;1.70;99.90;;;;;;5011942;28;20045;-58
2021/12/09 02:27:49;;;;;;;13.82;9.18;;;1.80;99.90;;;;;;5011136;28;20073;-58
2021/12/09 02:30:15;;;;;;;17.90;9.57;;;1.70;99.90;;;;;;5007397;28;20372;-58
2021/12/09 02:32:42;;;;;;;17.40;9.50;;;1.70;99.90;;;;;;5008944;28;20046;-57
2021/12/09 02:35:08;;;;;;;15.02;9.77;;;1.70;99.90;;;;;;5004348;28;20038;-58
2021/12/09 02:37:34;;;;;;;16.85;10.75;;;1.70;99.90;;;;;;5006306;28;20065;-58
2021/12/09 02:40:00;;;;;;;20.35;10.65;;;1.70;99.90;;;;;;5004825;28;20038;-59
2021/12/09 02:42:26;;;;;;;17.15;9.85;;;1.80;99.90;;;;;;5006195;28;20175;-58
2021/12/09 02:44:54;;;;;;;17.23;10.00;;;1.70;99.90;;;;;;5003185;28;20061;-59
2021/12/09 02:47:20;;;;;;;17.33;10.65;;;1.70;99.90;;;;;;5005929;28;20053;-59
2021/12/09 02:49:45;;;;;;;17.30;10.32;;;1.70;99.90;;;;;;5009382;28;20056;-58
2021/12/09 02:52:11;;;;;;;15.82;9.38;;;1.60;99.90;;;;;;5008093;28;20100;-58
2021/12/09 02:54:37;;;;;;;18.38;11.02;;;1.60;99.90;;;;;;5012358;28;20088;-58
2021/12/09 02:57:06;;;;;;;16.58;10.75;;;1.60;99.90;;;;;;5013691;28;20068;-59
2021/12/09 02:59:32;;;;;;;18.55;10.10;;;1.60;99.90;;;;;;5007339;28;20047;-58
2021/12/09 03:01:59;;;;;;;17.38;10.63;;;1.60;99.90;;;;;;5010883;28;20068;-58
2021/12/09 03:04:37;;;;;;;15.77;9.73;;;1.60;99.90;;;;;;5012472;28;20052;-58
2021/12/09 03:07:05;;;;;;;18.80;10.75;;;1.60;99.90;;;;;;5002539;28;20054;-59
2021/12/09 03:09:30;;;;;;;21.38;10.45;;;1.60;99.90;;;;;;5005849;28;20068;-58
2021/12/09 03:12:03;;;;;;;15.73;10.70;;;1.60;99.90;;;;;;5005841;28;20038;-58
2021/12/09 03:14:28;;;;;;;16.27;11.13;;;1.60;99.90;;;;;;5011693;28;20088;-58
2021/12/09 03:16:54;;;;;;;19.95;10.40;;;1.60;99.90;;;;;;5008864;28;20069;-59
2021/12/09 03:19:19;;;;;;;21.85;11.13;;;1.60;99.90;;;;;;5009381;28;20471;-58
2021/12/09 03:21:47;;;;;;;19.65;11.63;;;1.60;99.90;;;;;;5005779;28;20431;-59
2021/12/09 03:24:16;;;;;;;18.03;11.00;;;1.60;99.90;;;;;;5009145;28;20050;-58
2021/12/09 03:26:46;;;;;;;20.40;11.75;;;1.50;99.90;;;;;;5004004;28;20451;-60
2021/12/09 03:29:14;;;;;;;20.77;11.85;;;1.60;99.90;;;;;;5004641;28;20080;-59
2021/12/09 03:31:43;;;;;;;18.45;11.05;;;1.60;99.90;;;;;;5004569;28;20038;-59
2021/12/09 03:34:11;;;;;;;17.83;11.88;;;1.60;99.90;;;;;;5005636;28;20049;-58
2021/12/09 03:36:37;;;;;;;18.57;12.47;;;1.60;99.90;;;;;;5003687;28;20149;-58
2021/12/09 03:39:07;;;;;;;23.05;11.68;;;1.60;99.90;;;;;;5010114;28;20399;-57
2021/12/09 03:41:33;;;;;;;18.58;11.60;;;1.60;99.90;;;;;;5004930;28;20041;-58
2021/12/09 03:43:59;;;;;;;16.60;10.93;;;1.60;99.90;;;;;;5006677;28;20046;-58
2021/12/09 03:46:25;;;;;;;17.85;11.65;;;1.60;99.90;;;;;;5005115;28;20045;-58
2021/12/09 03:48:50;;;;;;;19.77;11.27;;;1.50;99.90;;;;;;5004548;28;20050;-58
2021/12/09 03:51:16;;;;;;;20.27;12.38;;;1.50;99.90;;;;;;5004699;28;20060;-58
2021/12/09 03:53:42;;;;;;;16.92;11.15;;;1.50;99.90;;;;;;5003152;28;21384;-57
2021/12/09 03:56:07;;;;;;;18.75;12.30;;;1.50;99.90;;;;;;5004241;28;20038;-58
2021/12/09 03:58:33;;;;;;;19.48;11.63;;;1.60;99.90;;;;;;5004862;28;20065;-59
2021/12/09 04:00:58;;;;;;;19.45;12.68;;;1.50;99.90;;;;;;5003613;28;20074;-58
2021/12/09 04:03:24;;;;;;;16.83;11.63;;;1.50;99.90;;;;;;5004169;28;20127;-59
2021/12/09 04:05:49;;;;;;;20.48;11.93;;;1.50;99.90;;;;;;5003304;28;20107;-58
2021/12/09 04:08:16;;;;;;;19.90;12.10;;;1.50;99.90;;;;;;5002665;28;20479;-59
2021/12/09 04:10:42;;;;;;;17.35;11.93;;;1.40;99.90;;;;;;5004259;28;20510;-59
2021/12/09 04:13:08;;;;;;;16.52;12.27;;;1.40;99.90;;;;;;5004744;28;20041;-58
2021/12/09 04:15:34;;;;;;;16.52;11.13;;;1.40;99.90;;;;;;5004260;28;20400;-59
2021/12/09 04:18:00;;;;;;;19.00;12.57;;;1.30;99.90;;;;;;5003660;28;20066;-59
2021/12/09 04:20:26;;;;;;;22.88;12.40;;;1.30;99.90;;;;;;5001620;28;20046;-58
2021/12/09 04:22:53;;;;;;;21.85;12.25;;;1.30;99.90;;;;;;5003420;28;20061;-58
2021/12/09 04:25:22;;;;;;;20.17;12.82;;;1.30;99.90;;;;;;5005949;28;20178;-57
2021/12/09 04:27:50;;;;;;;27.92;17.92;;;1.30;99.90;;;;;;5002360;28;20065;-59
2021/12/09 04:30:16;;;;;;;19.00;12.60;;;1.30;99.90;;;;;;5010984;28;20092;-58
2021/12/09 04:32:43;;;;;;;20.35;12.90;;;1.30;99.90;;;;;;5008698;28;20065;-59
2021/12/09 04:35:10;;;;;;;20.90;12.98;;;1.20;99.90;;;;;;5010054;28;20038;-58
2021/12/09 04:37:36;;;;;;;27.17;13.10;;;1.20;99.90;;;;;;5009142;28;20404;-59
2021/12/09 04:40:03;;;;;;;25.63;12.82;;;1.20;99.90;;;;;;5009832;28;20044;-59
2021/12/09 04:42:29;;;;;;;20.92;13.10;;;1.20;99.90;;;;;;5008219;28;20590;-58
2021/12/09 04:44:55;;;;;;;17.17;12.27;;;1.20;99.90;;;;;;5010310;28;20125;-57
2021/12/09 04:47:21;;;;;;;21.10;12.70;;;1.10;99.90;;;;;;5008073;28;20112;-58
2021/12/09 04:49:47;;;;;;;21.88;13.40;;;1.10;99.90;;;;;;5008716;28;20046;-58
2021/12/09 04:52:13;;;;;;;26.10;14.40;;;1.10;99.90;;;;;;5010879;28;20539;-58
2021/12/09 04:54:41;;;;;;;27.48;13.57;;;1.10;99.90;;;;;;5008261;28;20129;-59
2021/12/09 04:57:08;;;;;;;23.10;13.05;;;1.20;99.90;;;;;;5005161;28;20046;-57
2021/12/09 04:59:34;;;;;;;21.45;12.88;;;1.10;99.90;;;;;;5011042;28;20045;-58
2021/12/09 05:01:59;;;;;;;21.90;13.40;;;1.20;99.90;;;;;;5008725;28;20065;-58
2021/12/09 05:04:25;;;;;;;23.50;14.00;;;1.10;99.90;;;;;;5009240;28;20053;-58
2021/12/09 05:06:51;;;;;;;22.77;13.35;;;1.10;99.90;;;;;;5011462;28;20046;-59
2021/12/09 05:09:18;;;;;;;24.85;13.70;;;1.20;99.90;;;;;;5006925;28;20087;-57
2021/12/09 05:14:11;;;;;;;21.53;13.43;;;1.20;99.90;;;;;;5008929;28;20137;-56
2021/12/09 05:16:37;;;;;;;22.98;13.10;;;1.20;99.90;;;;;;5007277;28;20117;-59
2021/12/09 05:19:03;;;;;;;23.85;14.40;;;1.20;99.90;;;;;;5005945;28;20076;-58
2021/12/09 05:21:36;;;;;;;22.27;13.93;;;1.20;99.90;;;;;;5002473;28;20523;-59
2021/12/09 05:24:04;;;;;;;23.10;13.43;;;1.10;99.90;;;;;;5005730;28;20048;-58
2021/12/09 05:26:35;;;;;;;20.00;14.43;;;1.10;99.90;;;;;;5006789;28;20041;-57
2021/12/09 05:29:01;;;;;;;21.73;13.55;;;1.10;99.90;;;;;;5005881;28;20080;-57
2021/12/09 05:34:15;;;;;;;24.45;13.27;;;1.10;99.90;;;;;;5009289;28;20578;-57
2021/12/09 05:36:41;;;;;;;24.10;14.15;;;1.10;99.90;;;;;;5006513;28;20046;-58
2021/12/09 05:39:09;;;;;;;23.50;14.63;;;1.00;99.90;;;;;;5005464;28;20048;-58
2021/12/09 05:41:35;;;;;;;22.45;13.98;;;1.00;99.90;;;;;;5002014;28;20050;-56
2021/12/09 05:44:03;;;;;;;20.77;13.68;;;1.00;99.90;;;;;;5008256;28;20046;-58
2021/12/09 05:46:29;;;;;;;26.00;14.52;;;1.00;99.90;;;;;;5007894;28;20065;-58
2021/12/09 05:48:55;;;;;;;27.80;13.32;;;1.00;99.90;;;;;;5008101;28;20053;-58
2021/12/09 05:51:25;;;;;;;23.02;14.10;;;1.00;99.90;;;;;;5009590;28;20108;-58
2021/12/09 05:53:52;;;;;;;26.23;13.63;;;1.00;99.90;;;;;;5001810;28;20491;-58
2021/12/09 05:56:17;;;;;;;23.10;13.32;;;1.00;99.90;;;;;;5008713;28;20038;-58
2021/12/09 05:58:43;;;;;;;21.92;13.80;;;1.00;99.90;;;;;;5009383;28;20104;-58
2021/12/09 06:01:09;;;;;;;24.52;13.65;;;1.00;99.90;;;;;;5007734;28;20164;-57
2021/12/09 06:03:35;;;;;;;27.23;14.05;;;0.90;99.90;;;;;;5009217;28;20522;-58
2021/12/09 06:06:01;;;;;;;21.77;14.05;;;0.90;99.90;;;;;;5009679;28;20100;-57
2021/12/09 06:08:27;;;;;;;26.90;14.60;;;0.90;99.90;;;;;;5008416;28;20491;-58
2021/12/09 06:10:53;;;;;;;27.90;16.02;;;0.90;99.90;;;;;;5009170;28;20048;-57
2021/12/09 06:13:19;;;;;;;24.60;14.32;;;1.00;99.90;;;;;;5008858;28;20434;-57
2021/12/09 06:15:45;;;;;;;26.67;15.00;;;1.00;99.90;;;;;;5008703;28;20125;-59
2021/12/09 06:18:11;;;;;;;25.50;14.50;;;1.00;99.90;;;;;;5010519;28;20065;-58
2021/12/09 06:20:37;;;;;;;21.60;14.23;;;1.00;99.90;;;;;;5005525;28;20044;-59
2021/12/09 06:23:03;;;;;;;24.25;14.50;;;1.00;99.90;;;;;;5005769;28;20420;-58
2021/12/09 06:25:28;;;;;;;22.25;13.95;;;1.10;99.90;;;;;;5002973;28;20065;-56
2021/12/09 06:27:57;;;;;;;20.60;14.40;;;1.10;99.90;;;;;;4991264;28;20464;-58
2021/12/09 06:30:25;;;;;;;23.83;14.07;;;1.10;99.90;;;;;;5005615;28;20046;-58
2021/12/09 06:32:51;;;;;;;27.17;14.38;;;1.10;99.90;;;;;;5009973;28;20039;-58
2021/12/09 06:35:17;;;;;;;24.65;14.07;;;1.00;99.90;;;;;;5012820;28;20121;-59
2021/12/09 06:37:45;;;;;;;27.33;14.85;;;0.90;99.90;;;;;;5007466;28;20050;-58
2021/12/09 06:40:18;;;;;;;27.17;14.88;;;0.90;99.90;;;;;;5004334;28;20140;-58
2021/12/09 06:42:44;;;;;;;21.08;13.70;;;0.90;99.90;;;;;;5006655;28;20050;-59
2021/12/09 06:45:12;;;;;;;22.88;14.15;;;0.80;99.90;;;;;;5003583;28;20045;-57
2021/12/09 06:47:39;;;;;;;23.15;14.63;;;0.90;99.90;;;;;;5005682;28;21656;-59
2021/12/09 06:50:08;;;;;;;21.75;14.10;;;0.90;99.90;;;;;;5013550;28;20050;-58
2021/12/09 06:52:34;;;;;;;24.60;13.65;;;0.90;99.90;;;;;;5013283;28;20049;-58
2021/12/09 06:55:00;;;;;;;26.90;14.45;;;0.80;99.90;;;;;;5014264;28;20116;-56
2021/12/09 06:57:26;;;;;;;23.13;14.57;;;0.80;99.90;;;;;;4996571;28;20042;-57
2021/12/09 06:59:51;;;;;;;19.58;13.90;;;0.90;99.90;;;;;;5009036;28;20058;-58
2021/12/09 07:02:17;;;;;;;21.95;13.63;;;0.90;99.90;;;;;;5008782;28;20046;-58
2021/12/09 07:04:43;;;;;;;21.75;14.05;;;0.80;99.90;;;;;;5012358;28;20052;-58
2021/12/09 07:07:09;;;;;;;25.45;14.05;;;0.80;99.90;;;;;;5006856;28;20130;-57
2021/12/09 07:09:36;;;;;;;20.00;13.98;;;0.80;99.90;;;;;;5004437;28;20034;-59
2021/12/09 07:12:02;;;;;;;22.60;14.10;;;0.90;99.90;;;;;;5006747;28;20049;-58
2021/12/09 07:14:28;;;;;;;24.08;13.43;;;0.80;99.90;;;;;;5013576;28;20281;-58
2021/12/09 07:16:54;;;;;;;23.15;14.27;;;0.90;99.90;;;;;;5008783;28;20056;-58
2021/12/09 07:19:19;;;;;;;27.13;13.40;;;0.90;99.90;;;;;;5012807;28;20484;-56
2021/12/09 07:21:45;;;;;;;19.40;13.65;;;0.90;99.90;;;;;;4993752;28;20034;-58
2021/12/09 07:24:11;;;;;;;23.67;14.02;;;0.90;99.90;;;;;;5010784;28;20072;-58
2021/12/09 07:26:36;;;;;;;20.27;14.05;;;0.90;99.90;;;;;;5011114;28;20487;-57
2021/12/09 07:29:02;;;;;;;25.90;13.98;;;0.90;99.90;;;;;;5010361;28;20493;-58
2021/12/09 07:31:28;;;;;;;24.83;13.60;;;1.00;99.90;;;;;;5009475;28;20491;-56
2021/12/09 07:33:56;;;;;;;22.50;13.68;;;0.90;99.90;;;;;;5007354;28;20616;-58
2021/12/09 07:36:21;;;;;;;25.60;14.00;;;0.90;99.90;;;;;;5005306;28;20503;-58
2021/12/09 07:38:47;;;;;;;24.70;13.57;;;0.90;99.90;;;;;;5004079;28;20045;-58
2021/12/09 07:41:14;;;;;;;28.77;13.38;;;0.80;99.90;;;;;;5003891;28;20494;-58
2021/12/09 07:43:40;;;;;;;27.35;14.70;;;0.80;99.90;;;;;;5003796;28;20066;-59
2021/12/09 07:46:06;;;;;;;22.48;12.85;;;0.80;99.90;;;;;;5003189;28;20052;-57
2021/12/09 07:48:32;;;;;;;26.60;13.73;;;0.80;99.90;;;;;;5003509;28;20065;-59
2021/12/09 07:50:57;;;;;;;23.08;13.93;;;0.80;99.90;;;;;;5008993;28;20042;-58
2021/12/09 07:53:24;;;;;;;23.25;13.18;;;0.90;99.90;;;;;;5016416;28;20376;-58
2021/12/09 07:55:51;;;;;;;20.85;12.50;;;0.90;99.90;;;;;;5011451;28;20076;-58
2021/12/09 07:58:17;;;;;;;23.98;13.18;;;0.90;99.90;;;;;;5010205;28;20450;-58
2021/12/09 08:00:44;;;;;;;23.05;13.57;;;0.90;99.90;;;;;;5001979;28;20050;-57
2021/12/09 08:03:09;;;;;;;22.52;13.20;;;0.90;99.90;;;;;;5007050;28;20507;-57
2021/12/09 08:05:37;;;;;;;19.15;12.48;;;0.90;99.90;;;;;;5005183;28;20050;-57
2021/12/09 08:08:04;;;;;;;23.13;12.63;;;0.90;99.90;;;;;;5011105;28;20073;-58
2021/12/09 08:10:29;;;;;;;21.55;12.70;;;0.90;99.90;;;;;;5013001;28;20137;-58
2021/12/09 08:12:57;;;;;;;22.08;13.57;;;0.90;99.90;;;;;;5014324;28;20117;-58
2021/12/09 08:15:22;;;;;;;24.98;13.70;;;1.00;99.90;;;;;;4993395;28;20065;-58
2021/12/09 08:18:01;;;;;;;22.75;12.70;;;1.00;99.90;;;;;;5007594;28;20472;-57
2021/12/09 08:20:28;;;;;;;22.63;12.57;;;1.00;99.90;;;;;;5004716;28;20076;-58
2021/12/09 08:22:54;;;;;;;22.58;11.63;;;1.00;99.90;;;;;;5004389;28;20046;-57
2021/12/09 08:25:20;;;;;;;23.95;13.55;;;1.10;99.90;;;;;;5006423;28;20048;-58
2021/12/09 08:27:46;;;;;;;22.60;11.82;;;1.10;99.90;;;;;;5012012;28;20115;-58
2021/12/09 08:30:15;;;;;;;24.02;12.13;;;1.10;99.90;;;;;;5008906;28;20488;-59
2021/12/09 08:32:40;;;;;;;17.23;11.60;;;1.10;99.90;;;;;;5001553;28;20116;-57
2021/12/09 08:35:06;;;;;;;19.05;11.38;;;1.10;99.90;;;;;;5008220;28;20435;-58
2021/12/09 08:37:32;;;;;;;21.73;11.88;;;1.20;99.90;;;;;;5011318;28;20510;-58
2021/12/09 08:39:58;;;;;;;19.17;11.60;;;1.20;99.90;;;;;;5008794;28;20058;-58
2021/12/09 08:42:24;;;;;;;26.98;12.43;;;1.20;99.90;;;;;;5005485;28;20421;-58
2021/12/09 08:44:51;;;;;;;23.73;11.68;;;1.30;99.90;;;;;;5006195;28;20069;-57
2021/12/09 08:47:18;;;;;;;25.98;11.20;;;1.30;99.90;;;;;;5005141;28;20058;-58
2021/12/09 08:49:45;;;;;;;21.13;11.05;;;1.30;99.90;;;;;;5005670;28;20062;-58
2021/12/09 08:52:11;;;;;;;19.50;10.75;;;1.30;99.90;;;;;;5007848;28;20731;-59
2021/12/09 08:54:37;;;;;;;16.95;10.85;;;1.40;99.90;;;;;;5002236;28;20072;-58
2021/12/09 08:57:04;;;;;;;20.85;11.35;;;1.40;99.90;;;;;;5003957;28;20500;-58
2021/12/09 08:59:30;;;;;;;18.20;11.32;;;1.50;99.90;;;;;;5004927;28;20065;-58
2021/12/09 09:01:56;;;;;;;17.67;11.55;;;1.50;99.90;;;;;;5006392;28;20045;-57
2021/12/09 09:04:22;;;;;;;20.10;11.20;;;1.50;99.90;;;;;;5004481;28;20033;-57
2021/12/09 09:06:52;;;;;;;21.50;10.85;;;1.60;99.90;;;;;;5001779;28;20030;-59
2021/12/09 09:09:18;;;;;;;16.83;10.32;;;1.60;99.90;;;;;;5001611;28;20117;-57
2021/12/09 09:11:43;;;;;;;24.08;9.77;;;1.70;99.90;;;;;;5001091;28;20184;-58
2021/12/09 09:14:09;;;;;;;18.73;9.63;;;1.80;99.90;;;;;;5004773;28;20045;-59
2021/12/09 09:16:35;;;;;;;21.05;10.35;;;1.80;99.90;;;;;;5005875;28;20479;-59
2021/12/09 09:19:00;;;;;;;20.25;10.10;;;1.90;99.90;;;;;;5009274;28;20065;-58
2021/12/09 09:21:28;;;;;;;20.15;10.52;;;2.00;99.90;;;;;;5011246;28;20053;-58
2021/12/09 09:23:55;;;;;;;20.42;9.85;;;2.00;99.90;;;;;;5012973;28;20096;-58
2021/12/09 09:26:20;;;;;;;21.25;10.95;;;2.10;99.90;;;;;;5013400;28;20116;-58
2021/12/09 09:28:46;;;;;;;22.25;9.68;;;2.10;99.90;;;;;;5012869;28;20068;-57
2021/12/09 09:31:12;;;;;;;17.75;9.48;;;2.20;99.90;;;;;;5013961;28;20049;-57
2021/12/09 09:33:38;;;;;;;19.83;9.32;;;2.20;99.90;;;;;;5013759;28;20208;-58
2021/12/09 09:36:03;;;;;;;16.35;9.90;;;2.30;99.90;;;;;;4997257;28;20042;-58
2021/12/09 09:38:29;;;;;;;19.58;8.73;;;2.30;99.90;;;;;;5012382;28;20049;-57
2021/12/09 09:41:04;;;;;;;17.67;8.77;;;2.30;99.90;;;;;;5011913;28;20464;-58
2021/12/09 09:46:30;;;;;;;20.52;9.27;;;2.40;99.90;;;;;;4975198;28;20058;-58
2021/12/09 09:48:58;;;;;;;15.37;9.17;;;2.40;99.90;;;;;;5000157;28;20215;-58
2021/12/09 09:51:26;;;;;;;12.00;7.65;;;2.50;99.90;;;;;;5016384;28;20053;-57
2021/12/09 09:53:52;;;;;;;14.73;8.00;;;2.50;99.90;;;;;;5017973;28;20182;-59
2021/12/09 09:56:22;;;;;;;15.57;8.05;;;2.50;99.90;;;;;;5022801;28;20127;-58
2021/12/09 09:58:51;;;;;;;15.82;8.63;;;2.50;99.90;;;;;;5016834;28;20050;-57
2021/12/09 10:01:18;;;;;;;15.40;8.32;;;2.50;99.90;;;;;;5016161;28;20057;-58
2021/12/09 10:03:47;;;;;;;15.68;8.13;;;2.60;99.90;;;;;;5017112;28;20037;-58
2021/12/09 10:06:17;;;;;;;14.60;7.38;;;2.60;99.90;;;;;;5016790;28;20045;-59
2021/12/09 10:08:42;;;;;;;16.65;7.85;;;2.60;99.90;;;;;;5017027;28;20038;-58
2021/12/09 10:11:09;;;;;;;10.77;7.38;;;2.70;99.90;;;;;;5011727;28;20052;-58
2021/12/09 10:13:38;;;;;;;17.13;7.70;;;2.70;99.90;;;;;;5012162;28;20131;-57
2021/12/09 10:16:16;;;;;;;15.55;7.40;;;2.70;99.90;;;;;;5016131;28;20042;-58
2021/12/09 10:18:45;;;;;;;18.65;7.28;;;2.80;99.90;;;;;;5015327;28;20074;-57
2021/12/09 10:21:18;;;;;;;16.20;7.80;;;2.80;99.90;;;;;;5014891;28;20096;-58
2021/12/09 10:23:46;;;;;;;11.75;7.20;;;2.80;99.90;;;;;;5014501;28;20061;-58
2021/12/09 10:26:26;;;;;;;15.85;7.22;;;2.90;99.90;;;;;;5013774;28;20565;-58
2021/12/09 10:29:13;;;;;;;11.80;7.30;;;2.90;99.90;;;;;;5016922;28;20049;-58
2021/12/09 10:31:51;;;;;;;12.60;7.25;;;2.90;99.90;;;;;;5014483;28;20065;-57
2021/12/09 10:34:36;;;;;;;18.77;8.10;;;3.00;99.90;;;;;;5014961;28;20046;-58
2021/12/09 10:37:20;;;;;;;12.23;8.18;;;3.10;99.90;;;;;;5015115;28;20069;-57
2021/12/09 10:40:07;;;;;;;13.55;7.05;;;3.20;99.90;;;;;;5013599;28;20110;-58
2021/12/09 10:42:39;;;;;;;15.32;8.40;;;3.20;99.90;;;;;;5016487;28;20141;-59
2021/12/09 10:45:08;;;;;;;15.13;7.60;;;3.30;99.90;;;;;;5016915;28;20072;-58
2021/12/09 10:47:52;;;;;;;15.73;8.75;;;3.30;99.90;;;;;;5016426;28;20048;-58
2021/12/09 10:50:33;;;;;;;12.63;7.57;;;3.40;99.90;;;;;;5013423;28;20481;-58
2021/12/09 10:55:57;;;;;;;14.45;8.93;;;;;;;;;;5015677;28;20508;-57
2021/12/09 10:58:35;;;;;;;16.33;8.43;;;3.80;99.90;;;;;;5017330;28;20068;-58
2021/12/09 11:01:02;;;;;;;;;;;3.80;99.90;;;;;;5017108;28;20042;-58
2021/12/09 11:03:40;;;;;;;17.40;8.23;;;3.90;99.90;;;;;;5017092;28;19981;-58
2021/12/09 11:06:12;;;;;;;13.38;7.80;;;3.90;99.90;;;;;;5014778;28;20341;-59
2021/12/09 11:08:49;;;;;;;13.00;7.25;;;3.90;99.90;;;;;;5015318;28;20053;-58
2021/12/09 11:11:16;;;;;;;17.10;8.80;;;3.90;99.90;;;;;;5014537;28;20124;-58
2021/12/09 11:13:51;;;;;;;19.27;7.65;;;4.00;99.90;;;;;;5013043;28;20383;-57
2021/12/09 11:16:27;;;;;;;13.80;7.68;;;3.90;99.90;;;;;;5015284;28;20042;-58
2021/12/09 11:19:12;;;;;;;12.68;7.95;;;4.00;99.90;;;;;;5015232;28;20042;-58
2021/12/09 11:21:43;;;;;;;13.38;7.55;;;3.90;99.90;;;;;;5012919;28;20092;-59
2021/12/09 11:24:15;;;;;;;15.02;7.82;;;4.00;99.90;;;;;;5013849;28;20447;-59
2021/12/09 11:27:02;;;;;;;15.30;8.30;;;4.00;99.90;;;;;;5015083;28;20042;-59
2021/12/09 11:29:35;;;;;;;14.27;7.68;;;4.00;99.90;;;;;;5015570;28;20065;-58
2021/12/09 11:32:17;;;;;;;15.38;8.63;;;4.00;99.90;;;;;;5013002;28;20045;-58
2021/12/09 11:34:53;;;;;;;12.00;7.43;;;4.10;99.90;;;;;;5012396;28;20061;-59
2021/12/09 11:40:48;;;;;;;12.75;7.25;;;4.00;99.90;;;;;;5014907;28;20361;-59
2021/12/09 11:43:12;;;;;;;15.20;8.05;;;4.00;99.90;;;;;;5012505;28;20046;-58
2021/12/09 11:45:42;;;;;;;14.32;7.40;;;4.00;99.90;;;;;;5014420;28;20053;-58
2021/12/09 11:48:10;;;;;;;16.55;7.80;;;4.10;99.90;;;;;;5014682;28;20034;-58
2021/12/09 11:50:39;;;;;;;12.15;8.02;;;4.10;99.90;;;;;;5014680;28;20066;-57
2021/12/09 11:53:09;;;;;;;15.23;8.85;;;4.10;99.90;;;;;;5015021;28;20484;-58
2021/12/09 11:55:41;;;;;;;15.80;8.23;;;4.10;99.90;;;;;;5015000;28;20046;-58
2021/12/09 11:58:18;;;;;;;11.95;8.27;;;4.10;99.90;;;;;;5014960;28;20120;-58
2021/12/09 12:07:17;;;;;;;12.32;8.30;;;4.00;99.90;;;;;;5008967;28;20054;-58
2021/12/09 12:13:02;;;;;;;12.27;8.90;;;4.00;99.90;;;;;;5011773;28;20046;-58
2021/12/09 12:18:40;;;;;;;14.77;9.45;;;4.00;99.90;;;;;;5013889;28;20050;-59
2021/12/09 12:21:37;;;;;;;18.20;10.25;;;4.00;99.90;;;;;;5013590;28;20060;-58
2021/12/09 12:27:26;;;;;;;16.35;9.73;;;4.00;99.90;;;;;;4991904;28;20052;-58
2021/12/09 12:30:19;;;;;;;20.67;10.85;;;4.00;99.90;;;;;;5014715;28;20049;-58
2021/12/09 12:38:31;;;;;;;19.92;10.55;;;4.10;99.90;;;;;;5013275;28;20042;-59
2021/12/09 12:41:09;;;;;;;20.42;11.60;;;4.10;99.90;;;;;;5002867;28;20038;-58
2021/12/09 12:43:59;;;;;;;18.08;11.32;;;4.10;99.90;;;;;;5008838;28;20487;-59
2021/12/09 12:46:52;;;;;;;18.23;11.13;;;4.10;99.90;;;;;;5013893;28;20435;-59
2021/12/09 12:49:32;;;;;;;20.25;11.48;;;4.10;99.90;;;;;;5013907;28;20058;-58
2021/12/09 12:52:07;;;;;;;17.92;11.38;;;4.10;99.90;;;;;;5011207;28;20049;-57
2021/12/09 12:54:46;;;;;;;21.17;11.32;;;4.10;99.90;;;;;;5013399;28;20511;-58
2021/12/09 12:57:33;;;;;;;20.58;11.27;;;4.10;99.90;;;;;;5013482;28;20515;-58
2021/12/09 13:00:22;;;;;;;17.83;10.40;;;4.10;99.90;;;;;;5014138;28;20046;-56
2021/12/09 13:05:53;;;;;;;17.63;10.68;;;4.10;99.90;;;;;;4995324;28;20046;-58
2021/12/09 13:09:15;;;;;;;20.98;10.63;;;4.10;99.90;;;;;;5010465;28;20042;-58
2021/12/09 13:11:50;;;;;;;20.52;10.25;;;4.10;99.90;;;;;;5010119;28;20056;-58
2021/12/09 13:14:24;;;;;;;15.93;10.85;;;4.20;99.90;;;;;;5013677;28;20057;-58
2021/12/09 13:17:08;;;;;;;21.02;10.60;;;4.20;99.90;;;;;;5014725;28;20057;-59
2021/12/09 13:19:47;;;;;;;18.48;10.98;;;4.20;99.90;;;;;;5013786;28;20145;-59
2021/12/09 13:22:31;;;;;;;20.05;11.65;;;4.20;99.90;;;;;;5014138;28;20452;-58
2021/12/09 13:25:29;;;;;;;17.98;11.75;;;4.30;99.90;;;;;;5014279;28;20030;-58
2021/12/09 13:28:03;;;;;;;23.52;11.30;;;4.30;99.90;;;;;;5015177;28;20072;-58
2021/12/09 13:30:54;;;;;;;20.15;11.57;;;4.40;99.90;;;;;;5012132;28;20492;-58